Terminal Aerodrome Forecast
Issued by NWS Sterling, VA

Home | Current Version | Previous Version | Text Only | Print | Product List | Glossary On
Versions: 1 2 3 4 5 6 7 8 9 10 11 12 13 14 15 16 17 18 19 20 21 22 23
000
FTUS41 KLWX 050830 AAA
TAFBWI
TAF AMD
KBWI 050830Z 0509/0612 25007KT P6SM FEW120
     FM051500 28006KT P6SM BKN090
     FM052100 VRB05KT 6SM -SHRA BKN050
     FM060200 VRB03KT P6SM VCSH OVC080=

USA.gov is the U.S. government's official web portal to all federal, state and local government web resources and services.